Time;durP1;ratioP1;P1;durP2;ratioP2;P2;SDS_P1;SDS_P2;PMS_P1;PMS_P2;Temp;Humidity;BMP_temperature;BMP_pressure;BME280_temperature;BME280_humidity;BME280_pressure;Samples;Min_cycle;Max_cycle;Signal;HPM_P1;HPM_P2
2021/12/28 00:00:14;;;;;;;51.60;25.92;;;4.30;99.90;;;;;;5071286;28;20424;-72
2021/12/28 00:02:41;;;;;;;47.28;24.25;;;4.80;99.90;;;;;;5072195;28;20048;-72
2021/12/28 00:05:09;;;;;;;52.30;25.92;;;5.10;99.90;;;;;;5091282;28;20036;-72
2021/12/28 00:07:36;;;;;;;50.65;25.15;;;;;;;;;;5075513;28;20402;-72
2021/12/28 00:10:02;;;;;;;47.78;25.55;;;;;;;;;;5075418;28;20041;-72
2021/12/28 00:12:31;;;;;;;48.92;25.17;;;;;;;;;;5095708;28;20038;-72
2021/12/28 00:15:07;;;;;;;57.35;26.60;;;;;;;;;;5095441;28;20040;-72
2021/12/28 00:20:18;;;;;;;54.15;26.75;;;5.10;99.90;;;;;;5075120;28;20135;-72
2021/12/28 00:22:45;;;;;;;58.20;25.98;;;;;;;;;;5075165;28;20051;-72
2021/12/28 00:25:11;;;;;;;57.47;27.55;;;;;;;;;;5083483;28;20101;-72
2021/12/28 00:27:38;;;;;;;63.15;28.65;;;5.10;99.90;;;;;;5090637;28;20154;-72
2021/12/28 00:30:05;;;;;;;56.47;26.77;;;5.10;99.90;;;;;;5082476;28;20043;-72
2021/12/28 00:32:31;;;;;;;57.70;28.52;;;;;;;;;;5077184;28;20040;-72
2021/12/28 00:34:57;;;;;;;65.60;27.75;;;;;;;;;;5074744;28;20040;-72
2021/12/28 00:37:23;;;;;;;65.07;28.00;;;;;;;;;;5075323;28;20396;-72
2021/12/28 00:39:49;;;;;;;58.97;27.20;;;;;;;;;;5095472;28;20066;-72
2021/12/28 00:42:15;;;;;;;68.25;28.55;;;;;;;;;;5091206;28;20049;-72
2021/12/28 00:44:41;;;;;;;59.58;27.25;;;;;;;;;;5085816;28;20035;-72
2021/12/28 00:47:07;;;;;;;56.03;27.80;;;;;;;;;;5089459;28;20046;-72
2021/12/28 00:49:33;;;;;;;61.65;27.83;;;;;;;;;;5074517;28;20497;-72
2021/12/28 00:52:00;;;;;;;58.95;27.90;;;;;;;;;;5085469;28;20412;-72
2021/12/28 00:54:26;;;;;;;63.75;29.95;;;;;;;;;;5074227;28;20437;-72
2021/12/28 00:56:52;;;;;;;59.10;28.52;;;;;;;;;;5076280;28;20036;-72
2021/12/28 00:59:18;;;;;;;65.00;28.33;;;;;;;;;;5074835;28;20435;-72
2021/12/28 01:01:44;;;;;;;56.75;27.33;;;;;;;;;;5080959;28;20071;-72
2021/12/28 01:04:10;;;;;;;69.57;30.05;;;;;;;;;;5089891;28;20101;-72
2021/12/28 01:06:36;;;;;;;62.95;29.50;;;;;;;;;;5076910;28;20075;-72
2021/12/28 01:09:02;;;;;;;88.60;29.88;;;;;;;;;;5074359;28;20076;-72
2021/12/28 01:11:28;;;;;;;69.78;29.73;;;;;;;;;;5077311;28;20502;-72
2021/12/28 01:13:54;;;;;;;70.72;28.58;;;;;;;;;;5089997;28;20836;-72
2021/12/28 01:16:20;;;;;;;64.30;28.52;;;;;;;;;;5078669;28;20412;-72
2021/12/28 01:18:47;;;;;;;68.82;29.67;;;;;;;;;;5074500;28;20080;-72
2021/12/28 01:21:13;;;;;;;77.03;31.27;;;;;;;;;;5074151;28;20041;-72
2021/12/28 01:23:39;;;;;;;69.80;29.15;;;;;;;;;;5091614;28;20484;-72
2021/12/28 01:26:05;;;;;;;72.63;29.83;;;;;;;;;;5071852;28;20040;-72
2021/12/28 01:28:31;;;;;;;79.07;30.75;;;;;;;;;;5074249;28;20109;-72
2021/12/28 01:30:57;;;;;;;109.97;30.20;;;;;;;;;;5073909;28;20128;-72
2021/12/28 01:33:23;;;;;;;82.57;29.65;;;;;;;;;;5089769;28;20059;-72
2021/12/28 01:35:50;;;;;;;76.32;30.27;;;;;;;;;;5090086;28;20465;-72
2021/12/28 01:38:17;;;;;;;86.05;29.05;;;;;;;;;;5087998;28;20044;-72
2021/12/28 01:40:43;;;;;;;74.68;29.55;;;;;;;;;;5093841;28;20044;-72
2021/12/28 01:43:17;;;;;;;96.55;30.85;;;5.30;99.90;;;;;;5073104;28;20484;-72
2021/12/28 01:45:47;;;;;;;84.35;31.17;;;5.30;99.90;;;;;;5057171;28;20128;-72
2021/12/28 01:48:21;;;;;;;100.68;30.65;;;5.20;99.90;;;;;;5074029;28;20036;-72
2021/12/28 01:50:50;;;;;;;94.15;29.58;;;5.20;99.90;;;;;;5073443;28;20033;-72
2021/12/28 01:53:17;;;;;;;76.57;29.17;;;5.50;99.90;;;;;;5085340;28;20123;-72
2021/12/28 01:55:46;;;;;;;83.88;29.63;;;5.30;99.90;;;;;;5075982;28;20067;-72
2021/12/28 01:58:12;;;;;;;79.85;29.58;;;5.70;99.90;;;;;;5084238;28;20040;-72
2021/12/28 02:00:40;;;;;;;78.70;28.95;;;5.50;99.90;;;;;;5093595;28;20094;-72
2021/12/28 02:03:11;;;;;;;82.97;28.63;;;5.50;99.90;;;;;;5090624;28;20096;-72
2021/12/28 02:05:38;;;;;;;91.53;29.70;;;;;;;;;;5076517;28;20044;-72
2021/12/28 02:08:05;;;;;;;85.18;29.75;;;4.70;99.90;;;;;;5056816;28;20041;-72
2021/12/28 02:10:32;;;;;;;89.55;30.98;;;5.70;99.90;;;;;;5056393;28;20396;-72
2021/12/28 02:12:58;;;;;;;76.80;29.70;;;;;;;;;;5080469;28;20420;-72
2021/12/28 02:15:24;;;;;;;98.70;30.30;;;;;;;;;;5089374;28;20040;-72
2021/12/28 02:17:50;;;;;;;106.07;29.70;;;;;;;;;;5061439;28;20039;-72
2021/12/28 02:20:19;;;;;;;84.93;29.15;;;5.40;99.90;;;;;;5093654;28;20118;-72
2021/12/28 02:22:45;;;;;;;111.32;31.45;;;;;;;;;;5079600;28;20036;-72
2021/12/28 02:25:14;;;;;;;87.75;30.08;;;5.50;99.90;;;;;;5088798;28;20495;-72
2021/12/28 02:27:40;;;;;;;85.53;29.70;;;;;;;;;;5057081;28;20459;-72
2021/12/28 02:30:10;;;;;;;88.53;30.15;;;5.60;99.90;;;;;;5055947;28;20439;-72
2021/12/28 02:32:38;;;;;;;91.63;29.65;;;5.50;99.90;;;;;;5073945;28;20044;-72
2021/12/28 02:35:07;;;;;;;117.78;29.38;;;5.60;99.90;;;;;;5081019;28;20060;-72
2021/12/28 02:37:33;;;;;;;98.53;29.38;;;;;;;;;;5072679;28;20040;-72
2021/12/28 02:39:59;;;;;;;90.03;28.92;;;;;;;;;;5092841;28;20492;-72
2021/12/28 02:42:26;;;;;;;129.38;29.15;;;5.30;99.90;;;;;;5093169;28;20400;-72
2021/12/28 02:45:02;;;;;;;105.43;30.52;;;5.50;99.90;;;;;;5082685;28;20040;-72
2021/12/28 02:47:28;;;;;;;82.93;30.15;;;;;;;;;;5092994;28;20048;-72
2021/12/28 02:49:54;;;;;;;101.85;28.92;;;;;;;;;;5072282;28;20048;-72
2021/12/28 02:52:20;;;;;;;96.97;28.92;;;;;;;;;;5072653;28;20097;-72
2021/12/28 02:54:47;;;;;;;95.63;28.55;;;;;;;;;;5080576;28;20040;-72
2021/12/28 02:57:13;;;;;;;86.25;27.90;;;;;;;;;;5039286;28;20048;-72
2021/12/28 02:59:50;;;;;;;104.53;29.20;;;5.50;99.90;;;;;;5088251;28;20035;-72
2021/12/28 03:02:17;;;;;;;118.88;29.40;;;5.70;99.90;;;;;;5092481;28;20040;-72
2021/12/28 03:04:44;;;;;;;102.10;28.55;;;;;;;;;;5084091;28;20123;-72
2021/12/28 03:07:10;;;;;;;88.75;28.52;;;;;;;;;;5075455;28;20432;-72
2021/12/28 03:09:36;;;;;;;102.70;28.27;;;;;;;;;;5086220;28;20119;-72
2021/12/28 03:12:03;;;;;;;84.68;28.08;;;;;;;;;;5072542;28;20040;-72
2021/12/28 03:14:29;;;;;;;98.70;29.92;;;;;;;;;;5073057;28;20541;-72
2021/12/28 03:16:55;;;;;;;104.55;30.17;;;;;;;;;;5072318;28;20126;-72
2021/12/28 03:19:21;;;;;;;91.70;28.58;;;;;;;;;;5083108;28;20042;-72
2021/12/28 03:21:47;;;;;;;103.85;28.05;;;5.30;99.90;;;;;;5081119;28;20055;-72
2021/12/28 03:24:13;;;;;;;117.38;29.42;;;5.70;99.90;;;;;;5038971;28;20041;-72
2021/12/28 03:26:40;;;;;;;108.57;29.73;;;;;;;;;;5038636;28;20124;-72
2021/12/28 03:29:06;;;;;;;102.57;27.33;;;;;;;;;;5055217;28;20526;-72
2021/12/28 03:31:32;;;;;;;106.63;28.30;;;5.70;99.90;;;;;;5072047;28;20504;-72
2021/12/28 03:33:58;;;;;;;114.53;29.33;;;6.00;99.90;;;;;;5071967;28;20105;-72
2021/12/28 03:36:25;;;;;;;87.35;28.00;;;5.80;99.90;;;;;;5071976;28;20045;-72
2021/12/28 03:38:52;;;;;;;106.97;30.02;;;;;;;;;;5080195;28;20044;-72
2021/12/28 03:41:20;;;;;;;109.15;28.70;;;5.80;99.90;;;;;;5079306;28;20093;-72
2021/12/28 03:43:48;;;;;;;117.78;28.50;;;6.60;99.90;;;;;;5094192;28;20040;-72
2021/12/28 03:46:14;;;;;;;125.32;29.45;;;;;;;;;;5096059;28;20075;-72
2021/12/28 03:48:41;;;;;;;94.50;27.23;;;5.80;99.90;;;;;;5094266;28;20079;-72
2021/12/28 03:51:08;;;;;;;106.32;27.27;;;;;;;;;;5059088;28;20484;-72
2021/12/28 03:53:34;;;;;;;104.10;27.27;;;;;;;;;;5078314;28;20476;-72
2021/12/28 03:56:01;;;;;;;118.47;30.30;;;;;;;;;;5075558;28;20040;-72
2021/12/28 03:58:27;;;;;;;107.93;26.80;;;;;;;;;;5075909;28;20094;-71
2021/12/28 04:00:53;;;;;;;96.30;27.02;;;;;;;;;;5075448;28;20106;-72
2021/12/28 04:03:19;;;;;;;112.10;27.45;;;;;;;;;;5059212;28;20086;-72
2021/12/28 04:05:45;;;;;;;111.93;28.58;;;;;;;;;;5091817;28;20045;-72
2021/12/28 04:08:20;;;;;;;119.35;28.55;;;6.50;99.90;;;;;;5058843;28;20040;-72
2021/12/28 04:10:55;;;;;;;130.48;29.38;;;6.00;99.90;;;;;;5075540;28;20036;-72
2021/12/28 04:13:23;;;;;;;112.18;26.92;;;6.20;99.90;;;;;;5060356;28;20127;-72
2021/12/28 04:15:50;;;;;;;101.57;29.27;;;5.90;99.90;;;;;;5075647;28;20036;-72
2021/12/28 04:18:17;;;;;;;122.10;27.70;;;6.20;99.90;;;;;;5075284;28;20130;-72
2021/12/28 04:20:44;;;;;;;108.18;26.98;;;;;;;;;;5088414;28;20466;-72
2021/12/28 04:23:10;;;;;;;114.65;28.45;;;;;;;;;;5078513;28;20040;-72
2021/12/28 04:25:36;;;;;;;106.85;27.23;;;;;;;;;;5082509;28;20373;-72
2021/12/28 04:28:03;;;;;;;105.50;27.58;;;;;;;;;;5091324;28;20127;-72
2021/12/28 04:30:28;;;;;;;102.20;27.92;;;7.00;99.90;;;;;;5084733;28;20040;-72
2021/12/28 04:32:54;;;;;;;127.57;28.88;;;;;;;;;;5074885;28;20036;-72
2021/12/28 04:35:20;;;;;;;105.80;27.15;;;;;;;;;;5084628;28;20048;-72
2021/12/28 04:37:46;;;;;;;96.97;27.17;;;;;;;;;;5076114;28;20354;-72
2021/12/28 04:40:13;;;;;;;119.93;27.75;;;6.30;99.90;;;;;;5075803;28;20032;-72
2021/12/28 04:42:39;;;;;;;111.65;26.20;;;;;;;;;;5074963;28;20149;-72
2021/12/28 04:45:09;;;;;;;121.63;27.05;;;6.30;99.90;;;;;;5058258;28;20050;-72
2021/12/28 04:47:35;;;;;;;123.43;26.52;;;;;;;;;;5091842;28;20048;-72
2021/12/28 04:50:01;;;;;;;100.18;26.85;;;;;;;;;;5075306;28;20044;-72
2021/12/28 04:52:33;;;;;;;101.07;27.08;;;;;;;;;;5057874;28;20039;-72
2021/12/28 04:54:59;;;;;;;127.20;28.58;;;;;;;;;;5076553;28;20396;-72
2021/12/28 04:57:26;;;;;;;109.38;26.55;;;;;;;;;;5095060;28;20040;-72
2021/12/28 04:59:52;;;;;;;106.53;26.10;;;;;;;;;;5085601;28;20041;-72
2021/12/28 05:02:17;;;;;;;108.97;28.60;;;6.20;99.90;;;;;;5074370;28;20105;-72
2021/12/28 05:04:44;;;;;;;97.68;27.88;;;7.10;99.90;;;;;;5074504;28;20048;-72
2021/12/28 05:07:10;;;;;;;122.43;27.33;;;;;;;;;;5075764;28;20150;-72
2021/12/28 05:09:36;;;;;;;127.80;26.48;;;;;;;;;;5074364;28;20127;-72
2021/12/28 05:12:02;;;;;;;111.53;27.67;;;;;;;;;;5090580;28;20083;-72
2021/12/28 05:14:28;;;;;;;98.07;27.50;;;;;;;;;;5094629;28;20038;-72
2021/12/28 05:16:56;;;;;;;93.00;26.60;;;;;;;;;;5087418;28;20033;-72
2021/12/28 05:19:22;;;;;;;112.07;25.75;;;;;;;;;;5075290;28;20040;-72
2021/12/28 05:21:48;;;;;;;77.63;26.60;;;;;;;;;;5087788;28;20044;-72
2021/12/28 05:24:15;;;;;;;126.88;27.55;;;;;;;;;;5094452;28;20051;-72
2021/12/28 05:26:41;;;;;;;86.82;24.27;;;;;;;;;;5088324;28;20093;-72
2021/12/28 05:29:07;;;;;;;108.28;27.30;;;6.20;99.90;;;;;;5073870;28;20507;-72
2021/12/28 05:31:33;;;;;;;107.45;26.38;;;;;;;;;;5084207;28;20058;-72
2021/12/28 05:33:59;;;;;;;90.38;25.98;;;;;;;;;;5089325;28;20057;-72
2021/12/28 05:36:26;;;;;;;93.00;26.65;;;;;;;;;;5074159;28;20067;-72
2021/12/28 05:38:52;;;;;;;90.55;24.42;;;;;;;;;;5074032;28;20051;-72
2021/12/28 05:41:18;;;;;;;96.95;25.73;;;;;;;;;;5080471;28;20040;-72
2021/12/28 05:43:44;;;;;;;82.53;24.88;;;;;;;;;;5094004;28;20130;-72
2021/12/28 05:46:10;;;;;;;92.22;24.50;;;5.70;99.90;;;;;;5071102;28;20040;-72
2021/12/28 05:48:35;;;;;;;87.32;25.13;;;6.00;99.90;;;;;;5073668;28;20102;-72
2021/12/28 05:51:02;;;;;;;86.35;24.70;;;5.70;99.90;;;;;;5075479;28;20443;-72
2021/12/28 05:53:28;;;;;;;82.53;25.20;;;;;;;;;;5093703;28;20395;-72
2021/12/28 05:55:54;;;;;;;84.80;23.30;;;;;;;;;;5091519;28;20044;-72
2021/12/28 05:58:20;;;;;;;76.93;24.17;;;;;;;;;;5093698;28;20399;-72
2021/12/28 06:00:46;;;;;;;92.28;25.20;;;;;;;;;;5080422;28;20154;-72
2021/12/28 06:03:12;;;;;;;92.07;25.27;;;;;;;;;;5057219;28;20396;-72
2021/12/28 06:05:38;;;;;;;80.55;22.15;;;;;;;;;;5073597;28;20040;-72
2021/12/28 06:08:04;;;;;;;80.90;24.70;;;;;;;;;;5091422;28;20044;-70
2021/12/28 06:10:30;;;;;;;77.90;22.40;;;;;;;;;;5093428;28;20039;-70
2021/12/28 06:12:57;;;;;;;74.10;21.75;;;;;;;;;;5072900;28;20491;-70
2021/12/28 06:15:23;;;;;;;79.57;22.60;;;;;;;;;;5072985;28;20040;-70
2021/12/28 06:17:49;;;;;;;69.80;21.55;;;;;;;;;;5074252;28;20059;-70
2021/12/28 06:20:15;;;;;;;80.95;22.73;;;;;;;;;;5073314;28;20070;-70
2021/12/28 06:22:41;;;;;;;97.88;23.02;;;;;;;;;;5091244;28;20065;-71
2021/12/28 06:25:07;;;;;;;81.18;22.45;;;;;;;;;;5093242;28;20043;-72
2021/12/28 06:27:34;;;;;;;71.72;21.65;;;;;;;;;;5076312;28;20127;-72
2021/12/28 06:30:00;;;;;;;88.00;22.80;;;;;;;;;;5074201;28;20405;-72
2021/12/28 06:32:26;;;;;;;67.70;21.20;;;;;;;;;;5072318;28;20052;-72
2021/12/28 06:34:52;;;;;;;83.68;23.15;;;;;;;;;;5055850;28;20048;-72
2021/12/28 06:37:18;;;;;;;81.97;22.85;;;;;;;;;;5057349;28;20419;-72
2021/12/28 06:39:44;;;;;;;75.32;24.30;;;;;;;;;;5072873;28;20040;-72
2021/12/28 06:42:10;;;;;;;96.00;23.95;;;6.40;99.90;;;;;;5084800;28;20043;-70
2021/12/28 06:44:37;;;;;;;77.18;23.45;;;;;;;;;;5092828;28;20415;-70
2021/12/28 06:47:03;;;;;;;69.78;23.08;;;;;;;;;;5082281;28;20479;-70
2021/12/28 06:49:29;;;;;;;72.07;21.88;;;;;;;;;;5072427;28;20127;-70
2021/12/28 06:51:55;;;;;;;69.28;22.70;;;;;;;;;;5074246;28;20144;-70
2021/12/28 06:54:21;;;;;;;68.28;21.67;;;;;;;;;;5072557;28;20063;-70
2021/12/28 06:56:47;;;;;;;80.22;23.70;;;;;;;;;;5062192;28;20493;-70
2021/12/28 06:59:13;;;;;;;75.05;22.40;;;;;;;;;;5083326;28;20044;-70
2021/12/28 07:01:39;;;;;;;70.00;21.48;;;;;;;;;;5073380;28;20032;-71
2021/12/28 07:04:05;;;;;;;83.30;22.50;;;;;;;;;;5088963;28;20051;-71
2021/12/28 07:06:31;;;;;;;76.15;22.00;;;;;;;;;;5075012;28;20044;-71
2021/12/28 07:08:57;;;;;;;72.93;21.17;;;;;;;;;;5080359;28;20135;-71
2021/12/28 07:11:23;;;;;;;69.00;21.63;;;;;;;;;;5072271;28;20056;-71
2021/12/28 07:13:49;;;;;;;69.85;20.88;;;;;;;;;;5077796;28;20109;-70
2021/12/28 07:16:16;;;;;;;66.68;21.98;;;;;;;;;;5075299;28;20483;-70
2021/12/28 07:18:42;;;;;;;59.58;22.08;;;;;;;;;;5071828;28;20033;-71
2021/12/28 07:21:08;;;;;;;60.83;21.40;;;;;;;;;;5088842;28;20094;-71
2021/12/28 07:23:34;;;;;;;71.05;22.50;;;;;;;;;;5073685;28;20032;-71
2021/12/28 07:26:00;;;;;;;60.08;20.85;;;;;;;;;;5072296;28;20041;-71
2021/12/28 07:28:26;;;;;;;71.35;21.27;;;;;;;;;;5079459;28;20044;-71
2021/12/28 07:30:53;;;;;;;69.88;20.30;;;7.10;99.90;;;;;;5092123;28;20040;-71
2021/12/28 07:33:19;;;;;;;72.47;20.85;;;;;;;;;;5077839;28;20113;-71
2021/12/28 07:35:45;;;;;;;67.47;20.98;;;;;;;;;;5075107;28;20093;-71
2021/12/28 07:38:11;;;;;;;67.18;20.65;;;;;;;;;;5087465;28;20032;-71
2021/12/28 07:40:37;;;;;;;72.72;20.35;;;;;;;;;;5055427;28;20044;-71
2021/12/28 07:43:03;;;;;;;65.68;19.55;;;;;;;;;;5071452;28;20032;-71
2021/12/28 07:45:30;;;;;;;59.97;20.58;;;;;;;;;;5071734;28;20043;-71
2021/12/28 07:47:56;;;;;;;54.83;18.48;;;;;;;;;;5072064;28;20090;-70
2021/12/28 07:50:22;;;;;;;56.63;19.98;;;;;;;;;;5084704;28;20462;-71
2021/12/28 07:52:49;;;;;;;61.30;18.77;;;6.50;99.90;;;;;;5083406;28;20032;-70
2021/12/28 07:55:16;;;;;;;67.00;18.90;;;6.50;99.90;;;;;;5071583;28;20045;-70
2021/12/28 07:57:42;;;;;;;59.47;18.25;;;;;;;;;;5072016;28;20423;-70
2021/12/28 08:00:13;;;;;;;51.03;17.85;;;7.00;99.90;;;;;;5077037;28;20419;-70
2021/12/28 08:02:42;;;;;;;58.40;17.50;;;;;;;;;;5079716;28;20040;-70
2021/12/28 08:05:08;;;;;;;65.05;17.73;;;6.30;99.90;;;;;;5081169;28;20076;-70
2021/12/28 08:07:34;;;;;;;50.17;16.92;;;;;;;;;;5074863;28;20425;-70
2021/12/28 08:10:00;;;;;;;61.15;16.98;;;;;;;;;;5087612;28;20080;-70
2021/12/28 08:12:26;;;;;;;49.15;16.85;;;;;;;;;;5074939;28;20067;-70
2021/12/28 08:14:52;;;;;;;49.00;16.55;;;;;;;;;;5054754;28;20040;-70
2021/12/28 08:17:18;;;;;;;45.15;16.30;;;;;;;;;;5071364;28;20039;-70
2021/12/28 08:19:44;;;;;;;49.13;16.58;;;;;;;;;;5084253;28;20041;-70
2021/12/28 08:22:10;;;;;;;51.00;15.98;;;;;;;;;;5071786;28;20123;-70
2021/12/28 08:24:36;;;;;;;52.28;15.68;;;;;;;;;;5091283;28;20051;-70
2021/12/28 08:27:02;;;;;;;49.65;15.40;;;5.60;99.90;;;;;;5095455;28;20082;-69
2021/12/28 08:29:28;;;;;;;50.25;15.07;;;;;;;;;;5079428;28;20072;-70
2021/12/28 08:31:55;;;;;;;55.03;15.63;;;;;;;;;;5075142;28;20101;-70
2021/12/28 08:34:21;;;;;;;38.25;14.80;;;;;;;;;;5058266;28;20056;-70
2021/12/28 08:36:47;;;;;;;40.85;14.52;;;;;;;;;;5074897;28;20127;-70
2021/12/28 08:39:13;;;;;;;42.90;13.60;;;;;;;;;;5066166;28;20380;-70
2021/12/28 08:41:39;;;;;;;53.95;14.15;;;;;;;;;;5074688;28;20044;-70
2021/12/28 08:44:05;;;;;;;36.45;14.23;;;6.80;99.90;;;;;;5081371;28;20048;-70
2021/12/28 08:46:31;;;;;;;43.67;13.40;;;;;;;;;;5074674;28;20052;-70
2021/12/28 08:48:57;;;;;;;45.00;14.45;;;;;;;;;;5083621;28;20036;-70
2021/12/28 08:51:24;;;;;;;47.63;14.10;;;;;;;;;;5094945;28;20119;-70
2021/12/28 08:53:51;;;;;;;43.15;14.05;;;;;;;;;;5085888;28;20111;-70
2021/12/28 08:56:17;;;;;;;48.70;13.60;;;;;;;;;;5089327;28;20048;-71
2021/12/28 08:58:43;;;;;;;50.70;13.20;;;;;;;;;;5091575;28;20057;-70
2021/12/28 09:01:09;;;;;;;46.05;12.93;;;;;;;;;;5077111;28;20123;-71
2021/12/28 09:03:35;;;;;;;49.38;13.38;;;;;;;;;;5075890;28;20093;-70
2021/12/28 09:06:02;;;;;;;46.20;12.80;;;;;;;;;;5086329;28;20044;-70
2021/12/28 09:08:28;;;;;;;35.63;12.13;;;;;;;;;;5074640;28;20090;-70
2021/12/28 09:10:54;;;;;;;36.50;11.80;;;7.40;99.90;;;;;;5074360;28;20568;-70
2021/12/28 09:13:20;;;;;;;44.35;12.88;;;;;;;;;;5076538;28;20048;-70
2021/12/28 09:15:46;;;;;;;47.92;13.10;;;;;;;;;;5087491;28;20032;-70
2021/12/28 09:18:13;;;;;;;40.17;13.27;;;;;;;;;;5094424;28;20036;-70
2021/12/28 09:20:39;;;;;;;43.75;13.18;;;;;;;;;;5073829;28;20032;-71
2021/12/28 09:23:09;;;;;;;48.85;13.25;;;6.80;99.90;;;;;;5074163;28;20393;-70
2021/12/28 09:25:36;;;;;;;48.17;12.57;;;;;;;;;;5083863;28;20160;-70
2021/12/28 09:28:02;;;;;;;46.45;14.05;;;;;;;;;;5094145;28;20116;-70
2021/12/28 09:30:28;;;;;;;41.20;12.85;;;;;;;;;;5090155;28;20036;-71
2021/12/28 09:32:55;;;;;;;41.80;13.68;;;;;;;;;;5073983;28;20055;-70
2021/12/28 09:35:21;;;;;;;43.85;13.30;;;6.90;99.90;;;;;;5087072;28;20063;-71
2021/12/28 09:37:47;;;;;;;40.10;13.60;;;;;;;;;;5093933;28;20123;-71
2021/12/28 09:40:14;;;;;;;47.35;13.68;;;;;;;;;;5089603;28;20101;-71
2021/12/28 09:42:42;;;;;;;36.85;12.60;;;;;;;;;;5073618;28;20044;-71
2021/12/28 09:45:09;;;;;;;43.97;14.10;;;;;;;;;;5064892;28;20044;-70
2021/12/28 09:47:35;;;;;;;34.53;14.02;;;;;;;;;;5073795;28;20064;-72
2021/12/28 09:50:02;;;;;;;38.33;13.75;;;;;;;;;;5073639;28;20062;-70
2021/12/28 09:52:28;;;;;;;29.05;12.82;;;;;;;;;;5073379;28;20123;-70
2021/12/28 09:54:54;;;;;;;46.88;13.82;;;;;;;;;;5079064;28;20037;-69
2021/12/28 09:57:20;;;;;;;54.80;15.48;;;;;;;;;;5074337;28;20127;-69
2021/12/28 09:59:47;;;;;;;43.22;13.95;;;;;;;;;;5076405;28;20059;-69
2021/12/28 10:02:14;;;;;;;43.92;14.07;;;6.90;99.90;;;;;;5074189;28;20177;-69
2021/12/28 10:05:09;;;;;;;48.67;15.27;;;6.90;99.90;;;;;;5078911;28;20040;-69
2021/12/28 10:07:42;;;;;;;40.47;14.88;;;7.70;99.90;;;;;;5073091;28;20051;-69
2021/12/28 10:10:08;;;;;;;40.22;15.07;;;;;;;;;;5081609;28;20036;-69
2021/12/28 10:12:40;;;;;;;35.95;15.60;;;7.70;99.90;;;;;;5072912;28;20523;-69
2021/12/28 10:15:10;;;;;;;50.23;15.90;;;7.60;99.90;;;;;;5065048;28;20044;-69
2021/12/28 10:17:41;;;;;;;45.08;15.38;;;7.20;99.90;;;;;;5072638;28;20044;-69
2021/12/28 10:20:24;;;;;;;44.67;15.60;;;6.90;99.90;;;;;;5072602;28;20045;-69
2021/12/28 10:22:53;;;;;;;;;;;7.00;99.90;;;;;;5056862;28;20051;-69
2021/12/28 10:25:19;;;;;;;35.83;15.32;;;;;;;;;;5081668;28;20410;-69
2021/12/28 10:27:51;;;;;;;48.28;15.70;;;;;;;;;;5077349;28;20049;-69
2021/12/28 10:30:28;;;;;;;41.60;16.08;;;7.80;99.90;;;;;;5079387;28;20044;-69
2021/12/28 10:33:05;;;;;;;43.88;17.17;;;;;;;;;;5055725;28;20045;-70
2021/12/28 10:35:37;;;;;;;47.42;16.10;;;7.10;99.90;;;;;;5074021;28;20048;-69
2021/12/28 10:38:06;;;;;;;44.55;17.90;;;7.00;99.90;;;;;;5072855;28;20044;-70
2021/12/28 10:40:38;;;;;;;38.60;16.10;;;7.30;99.90;;;;;;5075537;28;20562;-70
2021/12/28 10:43:11;;;;;;;45.80;15.57;;;7.40;99.90;;;;;;5075993;28;20048;-70
2021/12/28 10:45:37;;;;;;;45.30;16.45;;;;;;;;;;5083604;28;20031;-70
2021/12/28 10:48:15;;;;;;;37.17;15.52;;;7.20;99.90;;;;;;5089703;28;20042;-70
2021/12/28 10:50:55;;;;;;;38.97;14.68;;;7.30;99.90;;;;;;5090924;28;20039;-70
2021/12/28 10:53:26;;;;;;;38.50;14.68;;;7.40;99.90;;;;;;5074209;28;20105;-70
2021/12/28 10:55:57;;;;;;;35.35;15.18;;;;;;;;;;5081618;28;20040;-71
2021/12/28 10:58:39;;;;;;;30.65;13.70;;;7.80;99.90;;;;;;5056107;28;20040;-70
2021/12/28 11:01:09;;;;;;;33.92;14.65;;;7.30;99.90;;;;;;5082894;28;20083;-70
2021/12/28 11:03:37;;;;;;;37.33;14.77;;;7.10;99.90;;;;;;5092669;28;20067;-68
2021/12/28 11:06:13;;;;;;;38.70;15.07;;;7.70;99.90;;;;;;5091935;28;20089;-69
2021/12/28 11:08:41;;;;;;;35.70;14.35;;;;;;;;;;5072574;28;20040;-70
2021/12/28 11:11:10;;;;;;;24.48;13.80;;;7.40;99.90;;;;;;5083011;28;20050;-69
2021/12/28 11:13:37;;;;;;;33.20;13.80;;;;;;;;;;5090606;28;20044;-69
2021/12/28 11:16:07;;;;;;;29.80;13.55;;;7.60;99.90;;;;;;5089667;28;20085;-69
2021/12/28 11:18:36;;;;;;;34.10;13.70;;;7.40;99.90;;;;;;5081038;28;20391;-70
2021/12/28 11:21:27;;;;;;;37.17;13.05;;;7.60;99.90;;;;;;5083521;28;20496;-70
2021/12/28 11:23:56;;;;;;;27.25;12.75;;;7.40;99.90;;;;;;5055761;28;20044;-70
2021/12/28 11:26:34;;;;;;;29.80;12.52;;;7.40;99.90;;;;;;5073774;28;20044;-69
2021/12/28 11:29:05;;;;;;;24.13;12.93;;;7.20;99.90;;;;;;5071952;28;20120;-68
2021/12/28 11:31:43;;;;;;;25.50;12.68;;;7.50;99.90;;;;;;5061311;28;20051;-75
2021/12/28 11:34:11;;;;;;;26.42;11.93;;;;;;;;;;5054804;28;20053;-73
2021/12/28 11:36:52;;;;;;;22.60;11.30;;;7.50;99.90;;;;;;5081444;28;20052;-70
2021/12/28 11:39:22;;;;;;;23.15;11.18;;;7.50;99.90;;;;;;5092409;28;20074;-70
2021/12/28 11:41:49;;;;;;;25.05;11.00;;;7.40;99.90;;;;;;5086509;28;20040;-71
2021/12/28 11:44:17;;;;;;;22.15;10.80;;;7.50;99.90;;;;;;5092094;28;20119;-72
2021/12/28 11:46:43;;;;;;;21.92;11.38;;;;;;;;;;5053620;28;20086;-72
2021/12/28 11:49:12;;;;;;;22.25;10.73;;;;;;;;;;5073128;28;20078;-72
2021/12/28 11:51:38;;;;;;;21.88;11.10;;;;;;;;;;5077472;28;20362;-72
2021/12/28 11:54:09;;;;;;;21.73;10.20;;;7.60;99.90;;;;;;5056400;28;20136;-77
2021/12/28 11:56:40;;;;;;;22.58;11.75;;;7.70;99.90;;;;;;5065461;28;20401;-73
2021/12/28 11:59:06;;;;;;;18.33;8.82;;;;;;;;;;5075299;28;20044;-70
2021/12/28 12:01:59;;;;;;;18.80;9.20;;;7.70;99.90;;;;;;5076772;28;20048;-70
2021/12/28 12:04:31;;;;;;;20.30;9.65;;;7.80;99.90;;;;;;5072032;28;20044;-72
2021/12/28 12:07:14;;;;;;;20.00;8.75;;;7.90;99.90;;;;;;5075064;28;20036;-72
2021/12/28 12:09:49;;;;;;;18.33;8.40;;;8.30;99.90;;;;;;5075039;28;20507;-72
2021/12/28 12:12:26;;;;;;;17.02;8.45;;;7.60;99.90;;;;;;5075331;28;20048;-72
2021/12/28 12:14:52;;;;;;;17.33;8.70;;;;;;;;;;5075582;28;20048;-73
2021/12/28 12:20:03;;;;;;;17.95;8.48;;;8.00;99.90;;;;;;5075420;28;20055;-73
2021/12/28 12:22:36;;;;;;;20.58;9.45;;;7.60;99.90;;;;;;5058466;28;20044;-73
2021/12/28 12:25:15;;;;;;;15.98;8.35;;;7.70;99.90;;;;;;5075192;28;20115;-73
2021/12/28 12:27:54;;;;;;;16.58;8.77;;;7.70;99.90;;;;;;5058679;28;20401;-73
2021/12/28 12:30:28;;;;;;;15.15;9.10;;;7.90;99.90;;;;;;5075133;28;20083;-72
2021/12/28 12:33:08;;;;;;;18.40;9.30;;;7.70;99.90;;;;;;5075092;28;20036;-71
2021/12/28 12:35:47;;;;;;;15.70;8.82;;;7.60;99.90;;;;;;5074862;28;20055;-71
2021/12/28 12:38:13;;;;;;;17.25;8.70;;;;;;;;;;5075049;28;20056;-71
2021/12/28 12:41:00;;;;;;;12.35;7.35;;;7.30;99.90;;;;;;5074935;28;20040;-71
2021/12/28 12:43:36;;;;;;;14.75;8.60;;;;;;;;;;5075196;28;20119;-70
2021/12/28 12:46:03;;;;;;;13.35;8.02;;;;;;;;;;5076067;28;20048;-70
2021/12/28 12:48:35;;;;;;;15.57;7.45;;;7.70;99.90;;;;;;5058312;28;20048;-70
2021/12/28 12:51:22;;;;;;;16.38;8.35;;;7.80;99.90;;;;;;5075174;28;20041;-70
2021/12/28 12:54:06;;;;;;;14.40;7.47;;;8.10;99.90;;;;;;5074696;28;20067;-71
2021/12/28 12:56:35;;;;;;;17.13;8.38;;;;;;;;;;5075147;28;20044;-71
2021/12/28 12:59:17;;;;;;;16.10;8.60;;;;;;;;;;5074554;28;20040;-71
2021/12/28 13:01:43;;;;;;;17.50;8.05;;;;;;;;;;5074643;28;20058;-71
2021/12/28 13:04:27;;;;;;;15.35;7.93;;;;;;;;;;5074798;28;20079;-70
2021/12/28 13:07:16;;;;;;;14.43;7.80;;;8.40;99.90;;;;;;5074524;28;20044;-71
2021/12/28 13:10:26;;;;;;;16.55;8.18;;;7.80;99.90;;;;;;5073637;28;20488;-71
2021/12/28 13:12:57;;;;;;;16.48;7.55;;;;;;;;;;5074414;28;20047;-71
2021/12/28 13:15:28;;;;;;;16.65;8.68;;;7.90;99.90;;;;;;5074556;28;20163;-71
2021/12/28 13:17:54;;;;;;;17.02;9.30;;;;;;;;;;5074484;28;20110;-70
2021/12/28 13:20:28;;;;;;;24.48;9.65;;;;;;;;;;5057968;28;20127;-71
2021/12/28 13:22:59;;;;;;;17.08;8.60;;;;;;;;;;5057553;28;20081;-71
2021/12/28 13:25:47;;;;;;;18.67;9.77;;;7.90;99.90;;;;;;5074144;28;20051;-71
2021/12/28 13:28:19;;;;;;;14.73;8.70;;;7.90;99.90;;;;;;5074277;28;20139;-70
2021/12/28 13:30:47;;;;;;;16.02;8.40;;;7.70;99.90;;;;;;5057758;28;20048;-70
2021/12/28 13:33:19;;;;;;;13.55;8.60;;;8.00;99.90;;;;;;5074237;28;20067;-70
2021/12/28 13:35:45;;;;;;;15.60;8.13;;;;;;;;;;5073637;28;20040;-70
2021/12/28 13:38:16;;;;;;;15.68;8.40;;;8.50;99.90;;;;;;5074073;28;20036;-71
2021/12/28 13:40:44;;;;;;;20.70;8.50;;;7.50;99.90;;;;;;5073981;28;20047;-71
2021/12/28 13:43:13;;;;;;;17.20;8.77;;;;;;;;;;5073945;28;20045;-71
2021/12/28 13:45:39;;;;;;;15.98;9.10;;;;;;;;;;5073819;28;20568;-71
2021/12/28 13:48:16;;;;;;;16.17;9.13;;;7.50;99.90;;;;;;5073617;28;20045;-71
2021/12/28 13:50:45;;;;;;;16.38;9.32;;;;;;;;;;5056803;28;20040;-71